PWSweather.com
Personal Weather Stations
Station Observations
METEOC500
Santo Antonio, FunchalPT 2020

Santo AntonioFunchalPT 2020

Lat: 32.678227, Lon: -16.945054

Elevation: 1669.94751

Station Type: WH Series

High Low Average
Temperature 71.8°F22.1°C 59.7°F15.4°C 64.7°F18.2°C
Dew Point 65.5°F18.6°C 54.3°F12.4°C 59.3°F15.2°C
Winds 7.8 mph 12.6 kmh Calm Calm 4.0 mph WSW6.4 kmh WSW
Wind Gusts 12.5 mph20.1 kmh 2.5 mph4.0 kmh 9.0 mph14.5 kmh
Humidity 91% 72% 83%
Pressure 30.29 in1025.7 mb 30.22 in1023.4 mb -
Precipitation 0.00 in0.0 mm - -
Hour Temp Dew Point Humidity Winds Wind Gusts Pressure Precip Precip Rate Daily Precip Total
12:02 AM 61.5°F16.4°C 55.2°F12.9°C 80% 4.5 mph NNW7.2 kmh NNW 10.1 mph16.3 kmh 30.25 in1024.4 mb 0.00 in0.0 mm 0.00 in0.0 mm 0.00 in0.0 mm
12:17 AM 61.5°F16.4°C 55.9°F13.3°C 82% 4.7 mph N7.6 kmh N 7.6 mph12.2 kmh 30.25 in1024.4 mb 0.00 in0.0 mm 0.00 in0.0 mm 0.00 in0.0 mm
12:33 AM 61.3°F16.3°C 55.8°F13.2°C 82% 6.5 mph NNW10.5 kmh NNW 10.1 mph16.3 kmh 30.25 in1024.4 mb 0.00 in0.0 mm 0.00 in0.0 mm 0.00 in0.0 mm
12:48 AM 61.5°F16.4°C 55.6°F13.1°C 81% 7.2 mph NNW11.6 kmh NNW 10.1 mph16.3 kmh 30.25 in1024.4 mb 0.00 in0.0 mm 0.00 in0.0 mm 0.00 in0.0 mm
01:03 AM 61.5°F16.4°C 55.9°F13.3°C 82% 5.4 mph N8.7 kmh N 10.1 mph16.3 kmh 30.24 in1024.0 mb 0.00 in0.0 mm 0.00 in0.0 mm 0.00 in0.0 mm
01:18 AM 61.2°F16.2°C 56.3°F13.5°C 84% 3.4 mph NNW5.5 kmh NNW 7.6 mph12.2 kmh 30.24 in1024.0 mb 0.00 in0.0 mm 0.00 in0.0 mm 0.00 in0.0 mm
01:33 AM 61.2°F16.2°C 55.2°F12.9°C 81% 6.5 mph NNW10.5 kmh NNW 10.1 mph16.3 kmh 30.24 in1024.0 mb 0.00 in0.0 mm 0.00 in0.0 mm 0.00 in0.0 mm
01:48 AM 61.2°F16.2°C 55.6°F13.1°C 82% 5.6 mph NNW9.0 kmh NNW 10.1 mph16.3 kmh 30.24 in1024.0 mb 0.00 in0.0 mm 0.00 in0.0 mm 0.00 in0.0 mm
02:03 AM 61.0°F16.1°C 55.8°F13.2°C 83% 5.6 mph NNW9.0 kmh NNW 10.1 mph16.3 kmh 30.23 in1023.7 mb 0.00 in0.0 mm 0.00 in0.0 mm 0.00 in0.0 mm
02:18 AM 60.6°F15.9°C 55.0°F12.8°C 82% 4.7 mph N7.6 kmh N 7.6 mph12.2 kmh 30.23 in1023.7 mb 0.00 in0.0 mm 0.00 in0.0 mm 0.00 in0.0 mm
02:33 AM 60.3°F15.7°C 55.8°F13.2°C 85% 4.7 mph NNW7.6 kmh NNW 7.6 mph12.2 kmh 30.23 in1023.7 mb 0.00 in0.0 mm 0.00 in0.0 mm 0.00 in0.0 mm
02:48 AM 59.7°F15.4°C 54.9°F12.7°C 84% 4.5 mph NNW7.2 kmh NNW 10.1 mph16.3 kmh 30.23 in1023.7 mb 0.00 in0.0 mm 0.00 in0.0 mm 0.00 in0.0 mm
03:03 AM 60.1°F15.6°C 54.5°F12.5°C 82% 6.5 mph NNW10.5 kmh NNW 10.1 mph16.3 kmh 30.22 in1023.4 mb 0.00 in0.0 mm 0.00 in0.0 mm 0.00 in0.0 mm
03:18 AM 60.4°F15.8°C 54.5°F12.5°C 81% 4.5 mph N7.2 kmh N 10.1 mph16.3 kmh 30.22 in1023.4 mb 0.00 in0.0 mm 0.00 in0.0 mm 0.00 in0.0 mm
03:33 AM 60.3°F15.7°C 55.0°F12.8°C 83% 3.1 mph NW5.0 kmh NW 10.1 mph16.3 kmh 30.22 in1023.4 mb 0.00 in0.0 mm 0.00 in0.0 mm 0.00 in0.0 mm
03:48 AM 59.7°F15.4°C 54.9°F12.7°C 84% 5.4 mph NNW8.7 kmh NNW 7.6 mph12.2 kmh 30.22 in1023.4 mb 0.00 in0.0 mm 0.00 in0.0 mm 0.00 in0.0 mm
04:03 AM 59.9°F15.5°C 54.3°F12.4°C 82% 4.5 mph NNW7.2 kmh NNW 7.6 mph12.2 kmh 30.22 in1023.4 mb 0.00 in0.0 mm 0.00 in0.0 mm 0.00 in0.0 mm
04:18 AM 60.4°F15.8°C 54.5°F12.5°C 81% 6.0 mph NNW9.7 kmh NNW 7.6 mph12.2 kmh 30.22 in1023.4 mb 0.00 in0.0 mm 0.00 in0.0 mm 0.00 in0.0 mm
04:33 AM 60.8°F16.0°C 54.7°F12.6°C 80% 5.4 mph N8.7 kmh N 10.1 mph16.3 kmh 30.22 in1023.4 mb 0.00 in0.0 mm 0.00 in0.0 mm 0.00 in0.0 mm
04:48 AM 61.0°F16.1°C 55.0°F12.8°C 81% 6.3 mph NW10.1 kmh NW 10.1 mph16.3 kmh 30.22 in1023.4 mb 0.00 in0.0 mm 0.00 in0.0 mm 0.00 in0.0 mm
05:03 AM 61.2°F16.2°C 54.7°F12.6°C 79% 6.0 mph NW9.7 kmh NW 10.1 mph16.3 kmh 30.22 in1023.4 mb 0.00 in0.0 mm 0.00 in0.0 mm 0.00 in0.0 mm
05:19 AM 61.3°F16.3°C 55.0°F12.8°C 80% 4.5 mph NNW7.2 kmh NNW 10.1 mph16.3 kmh 30.22 in1023.4 mb 0.00 in0.0 mm 0.00 in0.0 mm 0.00 in0.0 mm
05:34 AM 61.3°F16.3°C 55.4°F13.0°C 81% 4.5 mph N7.2 kmh N 10.1 mph16.3 kmh 30.22 in1023.4 mb 0.00 in0.0 mm 0.00 in0.0 mm 0.00 in0.0 mm
05:49 AM 61.2°F16.2°C 55.2°F12.9°C 81% 6.5 mph NNW10.5 kmh NNW 10.1 mph16.3 kmh 30.22 in1023.4 mb 0.00 in0.0 mm 0.00 in0.0 mm 0.00 in0.0 mm
06:04 AM 60.8°F16.0°C 54.7°F12.6°C 80% 4.7 mph N7.6 kmh N 10.1 mph16.3 kmh 30.22 in1023.4 mb 0.00 in0.0 mm 0.00 in0.0 mm 0.00 in0.0 mm
06:19 AM 60.6°F15.9°C 54.7°F12.6°C 81% 5.4 mph NW8.7 kmh NW 7.6 mph12.2 kmh 30.22 in1023.4 mb 0.00 in0.0 mm 0.00 in0.0 mm 0.00 in0.0 mm
06:34 AM 60.4°F15.8°C 54.3°F12.4°C 80% 5.6 mph NNW9.0 kmh NNW 10.1 mph16.3 kmh 30.23 in1023.7 mb 0.00 in0.0 mm 0.00 in0.0 mm 0.00 in0.0 mm
06:49 AM 60.6°F15.9°C 55.0°F12.8°C 82% 4.9 mph NW7.9 kmh NW 10.1 mph16.3 kmh 30.24 in1024.0 mb 0.00 in0.0 mm 0.00 in0.0 mm 0.00 in0.0 mm
07:04 AM 60.8°F16.0°C 55.2°F12.9°C 82% 3.8 mph NW6.1 kmh NW 10.1 mph16.3 kmh 30.23 in1023.7 mb 0.00 in0.0 mm 0.00 in0.0 mm 0.00 in0.0 mm
07:19 AM 61.0°F16.1°C 55.8°F13.2°C 83% 7.8 mph NW12.6 kmh NW 10.1 mph16.3 kmh 30.24 in1024.0 mb 0.00 in0.0 mm 0.00 in0.0 mm 0.00 in0.0 mm
07:34 AM 61.2°F16.2°C 54.9°F12.7°C 80% 6.0 mph NNW9.7 kmh NNW 10.1 mph16.3 kmh 30.24 in1024.0 mb 0.00 in0.0 mm 0.00 in0.0 mm 0.00 in0.0 mm
07:49 AM 61.5°F16.4°C 55.2°F12.9°C 80% 5.6 mph N9.0 kmh N 10.1 mph16.3 kmh 30.25 in1024.4 mb 0.00 in0.0 mm 0.00 in0.0 mm 0.00 in0.0 mm
08:04 AM 61.9°F16.6°C 54.9°F12.7°C 78% 6.0 mph N9.7 kmh N 10.1 mph16.3 kmh 30.26 in1024.7 mb 0.00 in0.0 mm 0.00 in0.0 mm 0.00 in0.0 mm
08:19 AM 62.2°F16.8°C 55.2°F12.9°C 78% 4.9 mph N7.9 kmh N 7.6 mph12.2 kmh 30.26 in1024.7 mb 0.00 in0.0 mm 0.00 in0.0 mm 0.00 in0.0 mm
08:34 AM 63.0°F17.2°C 57.0°F13.9°C 81% 2.2 mph N3.5 kmh N 7.6 mph12.2 kmh 30.26 in1024.7 mb 0.00 in0.0 mm 0.00 in0.0 mm 0.00 in0.0 mm
08:49 AM 64.0°F17.8°C 58.8°F14.9°C 83% 0.9 mph NNE1.4 kmh NNE 4.9 mph7.9 kmh 30.27 in1025.1 mb 0.00 in0.0 mm 0.00 in0.0 mm 0.00 in0.0 mm
09:04 AM 65.8°F18.8°C 58.8°F14.9°C 78% 2.2 mph E3.5 kmh E 4.9 mph7.9 kmh 30.27 in1025.1 mb 0.00 in0.0 mm 0.00 in0.0 mm 0.00 in0.0 mm
09:19 AM 67.5°F19.7°C 61.3°F16.3°C 81% 3.8 mph SE6.1 kmh SE 7.6 mph12.2 kmh 30.28 in1025.4 mb 0.00 in0.0 mm 0.00 in0.0 mm 0.00 in0.0 mm
09:34 AM 67.6°F19.8°C 61.2°F16.2°C 80% 3.8 mph SSE6.1 kmh SSE 4.9 mph7.9 kmh 30.28 in1025.4 mb 0.00 in0.0 mm 0.00 in0.0 mm 0.00 in0.0 mm
09:49 AM 68.2°F20.1°C 60.6°F15.9°C 77% 0.2 mph S0.3 kmh S 4.9 mph7.9 kmh 30.28 in1025.4 mb 0.00 in0.0 mm 0.00 in0.0 mm 0.00 in0.0 mm
10:05 AM 70.0°F21.1°C 61.0°F16.1°C 73% 4.5 mph S7.2 kmh S 7.6 mph12.2 kmh 30.28 in1025.4 mb 0.00 in0.0 mm 0.00 in0.0 mm 0.00 in0.0 mm
10:20 AM 71.6°F22.0°C 62.1°F16.7°C 72% 4.0 mph SE6.4 kmh SE 10.1 mph16.3 kmh 30.29 in1025.7 mb 0.00 in0.0 mm 0.00 in0.0 mm 0.00 in0.0 mm
10:35 AM 71.2°F21.8°C 63.3°F17.4°C 76% 0.7 mph S1.1 kmh S 7.6 mph12.2 kmh 30.28 in1025.4 mb 0.00 in0.0 mm 0.00 in0.0 mm 0.00 in0.0 mm
10:50 AM 70.2°F21.2°C 63.3°F17.4°C 79% 1.8 mph S2.9 kmh S 7.6 mph12.2 kmh 30.29 in1025.7 mb 0.00 in0.0 mm 0.00 in0.0 mm 0.00 in0.0 mm
11:05 AM 69.1°F20.6°C 63.7°F17.6°C 83% 1.6 mph SE2.6 kmh SE 10.1 mph16.3 kmh 30.29 in1025.7 mb 0.00 in0.0 mm 0.00 in0.0 mm 0.00 in0.0 mm
11:20 AM 68.2°F20.1°C 62.8°F17.1°C 83% Calm Calm 7.6 mph12.2 kmh 30.28 in1025.4 mb 0.00 in0.0 mm 0.00 in0.0 mm 0.00 in0.0 mm
11:35 AM 68.2°F20.1°C 62.4°F16.9°C 82% 1.6 mph SSE2.6 kmh SSE 10.1 mph16.3 kmh 30.28 in1025.4 mb 0.00 in0.0 mm 0.00 in0.0 mm 0.00 in0.0 mm
11:50 AM 68.5°F20.3°C 63.1°F17.3°C 83% 4.9 mph SSE7.9 kmh SSE 7.6 mph12.2 kmh 30.27 in1025.1 mb 0.00 in0.0 mm 0.00 in0.0 mm 0.00 in0.0 mm
12:05 PM 68.4°F20.2°C 63.0°F17.2°C 83% 3.1 mph SE5.0 kmh SE 10.1 mph16.3 kmh 30.27 in1025.1 mb 0.00 in0.0 mm 0.00 in0.0 mm 0.00 in0.0 mm
12:20 PM 68.0°F20.0°C 62.6°F17.0°C 83% 2.5 mph E4.0 kmh E 10.1 mph16.3 kmh 30.27 in1025.1 mb 0.00 in0.0 mm 0.00 in0.0 mm 0.00 in0.0 mm
12:35 PM 67.8°F19.9°C 62.4°F16.9°C 83% 2.9 mph SE4.7 kmh SE 7.6 mph12.2 kmh 30.26 in1024.7 mb 0.00 in0.0 mm 0.00 in0.0 mm 0.00 in0.0 mm
12:50 PM 67.8°F19.9°C 63.1°F17.3°C 85% 2.2 mph SSE3.5 kmh SSE 10.1 mph16.3 kmh 30.26 in1024.7 mb 0.00 in0.0 mm 0.00 in0.0 mm 0.00 in0.0 mm
01:05 PM 67.3°F19.6°C 63.0°F17.2°C 86% Calm Calm 10.1 mph16.3 kmh 30.26 in1024.7 mb 0.00 in0.0 mm 0.00 in0.0 mm 0.00 in0.0 mm
01:20 PM 67.3°F19.6°C 62.6°F17.0°C 85% 0.7 mph S1.1 kmh S 10.1 mph16.3 kmh 30.25 in1024.4 mb 0.00 in0.0 mm 0.00 in0.0 mm 0.00 in0.0 mm
01:35 PM 67.8°F19.9°C 63.1°F17.3°C 85% 3.1 mph S5.0 kmh S 10.1 mph16.3 kmh 30.24 in1024.0 mb 0.00 in0.0 mm 0.00 in0.0 mm 0.00 in0.0 mm
01:50 PM 68.0°F20.0°C 63.0°F17.2°C 84% Calm Calm 7.6 mph12.2 kmh 30.23 in1023.7 mb 0.00 in0.0 mm 0.00 in0.0 mm 0.00 in0.0 mm
02:06 PM 68.2°F20.1°C 62.4°F16.9°C 82% 1.8 mph SSW2.9 kmh SSW 7.6 mph12.2 kmh 30.23 in1023.7 mb 0.00 in0.0 mm 0.00 in0.0 mm 0.00 in0.0 mm
02:21 PM 68.7°F20.4°C 62.6°F17.0°C 81% 1.6 mph S2.6 kmh S 7.6 mph12.2 kmh 30.23 in1023.7 mb 0.00 in0.0 mm 0.00 in0.0 mm 0.00 in0.0 mm
02:36 PM 69.3°F20.7°C 63.1°F17.3°C 81% 4.7 mph SE7.6 kmh SE 10.1 mph16.3 kmh 30.23 in1023.7 mb 0.00 in0.0 mm 0.00 in0.0 mm 0.00 in0.0 mm
02:51 PM 69.4°F20.8°C 63.0°F17.2°C 80% 1.8 mph S2.9 kmh S 7.6 mph12.2 kmh 30.23 in1023.7 mb 0.00 in0.0 mm 0.00 in0.0 mm 0.00 in0.0 mm
03:06 PM 70.0°F21.1°C 62.8°F17.1°C 78% 1.6 mph SE2.6 kmh SE 7.6 mph12.2 kmh 30.23 in1023.7 mb 0.00 in0.0 mm 0.00 in0.0 mm 0.00 in0.0 mm
03:21 PM 70.3°F21.3°C 63.5°F17.5°C 79% 0.2 mph S0.3 kmh S 10.1 mph16.3 kmh 30.23 in1023.7 mb 0.00 in0.0 mm 0.00 in0.0 mm 0.00 in0.0 mm
03:36 PM 70.3°F21.3°C 62.8°F17.1°C 77% 6.9 mph E11.1 kmh E 7.6 mph12.2 kmh 30.22 in1023.4 mb 0.00 in0.0 mm 0.00 in0.0 mm 0.00 in0.0 mm
03:51 PM 71.1°F21.7°C 63.1°F17.3°C 76% 2.5 mph S4.0 kmh S 10.1 mph16.3 kmh 30.22 in1023.4 mb 0.00 in0.0 mm 0.00 in0.0 mm 0.00 in0.0 mm
04:06 PM 71.8°F22.1°C 64.2°F17.9°C 77% 3.1 mph E5.0 kmh E 10.1 mph16.3 kmh 30.22 in1023.4 mb 0.00 in0.0 mm 0.00 in0.0 mm 0.00 in0.0 mm
04:21 PM 70.9°F21.6°C 65.5°F18.6°C 83% 5.6 mph SE9.0 kmh SE 10.1 mph16.3 kmh 30.22 in1023.4 mb 0.00 in0.0 mm 0.00 in0.0 mm 0.00 in0.0 mm
04:36 PM 69.4°F20.8°C 64.4°F18.0°C 84% 2.5 mph E4.0 kmh E 10.1 mph16.3 kmh 30.22 in1023.4 mb 0.00 in0.0 mm 0.00 in0.0 mm 0.00 in0.0 mm
04:51 PM 68.7°F20.4°C 64.0°F17.8°C 85% 0.9 mph SSW1.4 kmh SSW 7.6 mph12.2 kmh 30.22 in1023.4 mb 0.00 in0.0 mm 0.00 in0.0 mm 0.00 in0.0 mm
05:06 PM 68.5°F20.3°C 63.5°F17.5°C 84% Calm Calm 10.1 mph16.3 kmh 30.22 in1023.4 mb 0.00 in0.0 mm 0.00 in0.0 mm 0.00 in0.0 mm
05:21 PM 68.5°F20.3°C 63.9°F17.7°C 85% 2.5 mph SSE4.0 kmh SSE 7.6 mph12.2 kmh 30.22 in1023.4 mb 0.00 in0.0 mm 0.00 in0.0 mm 0.00 in0.0 mm
05:36 PM 68.4°F20.2°C 64.0°F17.8°C 86% 0.2 mph S0.3 kmh S 4.9 mph7.9 kmh 30.22 in1023.4 mb 0.00 in0.0 mm 0.00 in0.0 mm 0.00 in0.0 mm
05:51 PM 67.8°F19.9°C 64.2°F17.9°C 88% 0.7 mph SSW1.1 kmh SSW 7.6 mph12.2 kmh 30.22 in1023.4 mb 0.00 in0.0 mm 0.00 in0.0 mm 0.00 in0.0 mm
06:06 PM 67.3°F19.6°C 63.9°F17.7°C 89% 2.5 mph SSE4.0 kmh SSE 7.6 mph12.2 kmh 30.22 in1023.4 mb 0.00 in0.0 mm 0.00 in0.0 mm 0.00 in0.0 mm
06:22 PM 66.9°F19.4°C 63.9°F17.7°C 90% Calm Calm 7.6 mph12.2 kmh 30.22 in1023.4 mb 0.00 in0.0 mm 0.00 in0.0 mm 0.00 in0.0 mm
06:37 PM 66.6°F19.2°C 63.5°F17.5°C 90% 0.7 mph SSE1.1 kmh SSE 7.6 mph12.2 kmh 30.22 in1023.4 mb 0.00 in0.0 mm 0.00 in0.0 mm 0.00 in0.0 mm
06:52 PM 66.4°F19.1°C 63.7°F17.6°C 91% Calm Calm 7.6 mph12.2 kmh 30.22 in1023.4 mb 0.00 in0.0 mm 0.00 in0.0 mm 0.00 in0.0 mm
07:07 PM 66.2°F19.0°C 63.5°F17.5°C 91% Calm Calm 4.9 mph7.9 kmh 30.22 in1023.4 mb 0.00 in0.0 mm 0.00 in0.0 mm 0.00 in0.0 mm
07:22 PM 65.8°F18.8°C 63.1°F17.3°C 91% Calm Calm 2.5 mph4.0 kmh 30.22 in1023.4 mb 0.00 in0.0 mm 0.00 in0.0 mm 0.00 in0.0 mm
07:37 PM 64.9°F18.3°C 61.9°F16.6°C 90% 3.4 mph NNW5.5 kmh NNW 4.9 mph7.9 kmh 30.22 in1023.4 mb 0.00 in0.0 mm 0.00 in0.0 mm 0.00 in0.0 mm
07:52 PM 63.9°F17.7°C 60.6°F15.9°C 89% 4.0 mph NNW6.4 kmh NNW 7.6 mph12.2 kmh 30.22 in1023.4 mb 0.00 in0.0 mm 0.00 in0.0 mm 0.00 in0.0 mm
08:07 PM 63.3°F17.4°C 59.4°F15.2°C 87% 3.8 mph NNW6.1 kmh NNW 10.1 mph16.3 kmh 30.22 in1023.4 mb 0.00 in0.0 mm 0.00 in0.0 mm 0.00 in0.0 mm
08:22 PM 63.1°F17.3°C 59.2°F15.1°C 87% 6.0 mph N9.7 kmh N 7.6 mph12.2 kmh 30.23 in1023.7 mb 0.00 in0.0 mm 0.00 in0.0 mm 0.00 in0.0 mm
08:37 PM 63.1°F17.3°C 58.8°F14.9°C 86% 2.9 mph NNW4.7 kmh NNW 7.6 mph12.2 kmh 30.24 in1024.0 mb 0.00 in0.0 mm 0.00 in0.0 mm 0.00 in0.0 mm
08:52 PM 63.0°F17.2°C 58.5°F14.7°C 85% 4.5 mph N7.2 kmh N 7.6 mph12.2 kmh 30.24 in1024.0 mb 0.00 in0.0 mm 0.00 in0.0 mm 0.00 in0.0 mm
09:07 PM 63.1°F17.3°C 58.6°F14.8°C 85% 2.5 mph NW4.0 kmh NW 10.1 mph16.3 kmh 30.24 in1024.0 mb 0.00 in0.0 mm 0.00 in0.0 mm 0.00 in0.0 mm
09:22 PM 63.1°F17.3°C 58.8°F14.9°C 86% 2.2 mph NW3.5 kmh NW 7.6 mph12.2 kmh 30.25 in1024.4 mb 0.00 in0.0 mm 0.00 in0.0 mm 0.00 in0.0 mm
09:37 PM 63.1°F17.3°C 58.6°F14.8°C 85% 4.5 mph NNW7.2 kmh NNW 7.6 mph12.2 kmh 30.25 in1024.4 mb 0.00 in0.0 mm 0.00 in0.0 mm 0.00 in0.0 mm
09:52 PM 63.1°F17.3°C 58.6°F14.8°C 85% 1.8 mph NW2.9 kmh NW 7.6 mph12.2 kmh 30.25 in1024.4 mb 0.00 in0.0 mm 0.00 in0.0 mm 0.00 in0.0 mm
10:07 PM 63.1°F17.3°C 58.6°F14.8°C 85% 4.0 mph N6.4 kmh N 12.5 mph20.1 kmh 30.25 in1024.4 mb 0.00 in0.0 mm 0.00 in0.0 mm 0.00 in0.0 mm
10:22 PM 63.0°F17.2°C 58.5°F14.7°C 85% 4.0 mph NNW6.4 kmh NNW 7.6 mph12.2 kmh 30.25 in1024.4 mb 0.00 in0.0 mm 0.00 in0.0 mm 0.00 in0.0 mm
10:38 PM 62.8°F17.1°C 58.5°F14.7°C 86% 2.2 mph NNW3.5 kmh NNW 7.6 mph12.2 kmh 30.24 in1024.0 mb 0.00 in0.0 mm 0.00 in0.0 mm 0.00 in0.0 mm
10:53 PM 62.6°F17.0°C 58.3°F14.6°C 86% 5.6 mph N9.0 kmh N 10.1 mph16.3 kmh 30.24 in1024.0 mb 0.00 in0.0 mm 0.00 in0.0 mm 0.00 in0.0 mm
11:08 PM 62.8°F17.1°C 57.9°F14.4°C 84% 3.8 mph NNW6.1 kmh NNW 10.1 mph16.3 kmh 30.25 in1024.4 mb 0.00 in0.0 mm 0.00 in0.0 mm 0.00 in0.0 mm
11:23 PM 62.8°F17.1°C 58.3°F14.6°C 85% 4.0 mph NW6.4 kmh NW 10.1 mph16.3 kmh 30.24 in1024.0 mb 0.00 in0.0 mm 0.00 in0.0 mm 0.00 in0.0 mm
11:38 PM 62.6°F17.0°C 57.4°F14.1°C 83% 6.3 mph NNW10.1 kmh NNW 12.5 mph20.1 kmh 30.24 in1024.0 mb 0.00 in0.0 mm 0.00 in0.0 mm 0.00 in0.0 mm
11:53 PM 62.6°F17.0°C 57.7°F14.3°C 84% 4.7 mph NNW7.6 kmh NNW 7.6 mph12.2 kmh 30.24 in1024.0 mb 0.00 in0.0 mm 0.00 in0.0 mm 0.00 in0.0 mm